Time;durP1;ratioP1;P1;durP2;ratioP2;P2;SDS_P1;SDS_P2;PMS_P1;PMS_P2;Temp;Humidity;BMP_temperature;BMP_pressure;BME280_temperature;BME280_humidity;BME280_pressure;Samples;Min_cycle;Max_cycle;Signal;HPM_P1;HPM_P2
2023/09/03 00:00:46;;;;;;;3.40;2.60;;;;;;;;;;5082521;28;41383;-68
2023/09/03 00:03:14;;;;;;;3.05;2.80;;;;;;;;;;5088769;28;41991;-68
2023/09/03 00:05:50;;;;;;;4.82;3.90;;;;;;;;;;5085715;28;42533;-68
2023/09/03 00:08:18;;;;;;;3.55;3.25;;;;;;;;;;5083301;28;42169;-67
2023/09/03 00:10:48;;;;;;;2.90;2.70;;;;;;;;;;5087338;28;40866;-67
2023/09/03 00:13:16;;;;;;;2.97;2.78;;;;;;;;;;5085553;28;39849;-68
2023/09/03 00:15:44;;;;;;;4.10;3.42;;;;;;;;;;5088037;28;41558;-68
2023/09/03 00:18:14;;;;;;;3.38;3.08;;;;;;;;;;5088280;28;40308;-68
2023/09/03 00:20:42;;;;;;;3.35;2.95;;;;;;;;;;5087624;28;42782;-67
2023/09/03 00:23:11;;;;;;;3.40;3.10;;;;;;;;;;5087564;28;42687;-67
2023/09/03 00:25:39;;;;;;;3.33;2.83;;;;;;;;;;5086532;27;40830;-68
2023/09/03 00:28:07;;;;;;;3.00;2.58;;;;;;;;;;5083722;28;43064;-68
2023/09/03 00:30:35;;;;;;;2.50;2.30;;;;;;;;;;5078426;28;39064;-68
2023/09/03 00:33:04;;;;;;;2.88;2.55;;;;;;;;;;5073747;28;42250;-68
2023/09/03 00:35:32;;;;;;;4.25;2.80;;;;;;;;;;5083947;28;40196;-68
2023/09/03 00:38:00;;;;;;;2.95;1.95;;;;;;;;;;5084573;28;39094;-68
2023/09/03 00:40:29;;;;;;;2.80;2.60;;;;;;;;;;5084989;28;42509;-67
2023/09/03 00:42:57;;;;;;;2.60;2.33;;;;;;;;;;5088600;28;41556;-67
2023/09/03 00:45:25;;;;;;;3.72;3.38;;;;;;;;;;5082695;28;39662;-68
2023/09/03 00:47:53;;;;;;;3.05;2.80;;;;;;;;;;5085926;28;40375;-66
2023/09/03 00:50:21;;;;;;;3.50;2.78;;;;;;;;;;5086692;28;41859;-67
2023/09/03 00:52:49;;;;;;;3.22;2.90;;;;;;;;;;5086506;28;39999;-68
2023/09/03 00:55:17;;;;;;;5.32;2.30;;;;;;;;;;5084460;28;41235;-68
2023/09/03 00:57:48;;;;;;;2.63;2.42;;;;;;;;;;5087834;28;40727;-67
2023/09/03 01:00:16;;;;;;;3.22;2.92;;;;;;;;;;5084352;28;42109;-67
2023/09/03 01:02:45;;;;;;;3.28;2.97;;;;;;;;;;5086060;28;42586;-68
2023/09/03 01:05:13;;;;;;;2.45;2.25;;;;;;;;;;5085732;28;40256;-67
2023/09/03 01:07:41;;;;;;;4.07;2.72;;;;;;;;;;5086149;28;42215;-67
2023/09/03 01:10:09;;;;;;;2.72;2.53;;;;;;;;;;5087434;28;41356;-67
2023/09/03 01:12:38;;;;;;;2.80;2.60;;;;;;;;;;5086664;28;41620;-68
2023/09/03 01:15:09;;;;;;;2.70;2.50;;;;;;;;;;5084061;28;41060;-68
2023/09/03 01:17:39;;;;;;;2.67;2.47;;;;;;;;;;5087271;28;40236;-67
2023/09/03 01:20:09;;;;;;;2.78;2.47;;;;;;;;;;5085095;28;40484;-68
2023/09/03 01:22:43;;;;;;;2.05;1.90;;;;;;;;;;5083902;28;40029;-67
2023/09/03 01:25:14;;;;;;;2.42;2.22;;;;;;;;;;5085083;28;39676;-68
2023/09/03 01:27:43;;;;;;;2.00;1.80;;;;;;;;;;5084944;28;41274;-67
2023/09/03 01:30:12;;;;;;;2.28;2.08;;;;;;;;;;5083088;28;40732;-68
2023/09/03 01:32:40;;;;;;;4.63;3.38;;;;;;;;;;5086993;28;41783;-67
2023/09/03 01:35:08;;;;;;;3.58;2.55;;;;;;;;;;5086636;28;42063;-67
2023/09/03 01:37:38;;;;;;;2.10;1.90;;;;;;;;;;5085924;28;40506;-67
2023/09/03 01:40:07;;;;;;;2.20;2.00;;;;;;;;;;5087438;28;41816;-67
2023/09/03 01:42:35;;;;;;;2.78;2.58;;;;;;;;;;5085405;28;43773;-67
2023/09/03 01:45:03;;;;;;;3.58;2.40;;;;;;;;;;5086642;28;40509;-68
2023/09/03 01:47:33;;;;;;;2.38;2.17;;;;;;;;;;5086028;28;41325;-68
2023/09/03 01:50:03;;;;;;;2.20;2.00;;;;;;;;;;5084983;28;41278;-67
2023/09/03 01:52:37;;;;;;;2.53;1.83;;;;;;;;;;5082732;28;40154;-68
2023/09/03 01:55:06;;;;;;;2.05;1.90;;;;;;;;;;5085375;28;41055;-67
2023/09/03 01:57:34;;;;;;;2.33;2.13;;;;;;;;;;5085200;28;40445;-68
2023/09/03 02:00:04;;;;;;;2.65;2.10;;;;;;;;;;5084925;28;41118;-67
2023/09/03 02:02:42;;;;;;;2.45;2.25;;;;;;;;;;5086305;28;42539;-67
2023/09/03 02:05:10;;;;;;;2.50;2.30;;;;;;;;;;5083546;28;39268;-67
2023/09/03 02:07:38;;;;;;;2.17;1.98;;;;;;;;;;5079226;28;41704;-67
2023/09/03 02:10:06;;;;;;;2.15;1.95;;;;;;;;;;5085726;28;43262;-67
2023/09/03 02:12:34;;;;;;;2.30;2.10;;;;;;;;;;5083689;28;39242;-68
2023/09/03 02:15:02;;;;;;;2.78;2.50;;;;;;;;;;5085431;28;40404;-67
2023/09/03 02:17:30;;;;;;;2.40;2.15;;;;;;;;;;5085354;28;41482;-68
2023/09/03 02:20:00;;;;;;;2.65;2.42;;;;;;;;;;5084935;28;42661;-68
2023/09/03 02:22:28;;;;;;;2.10;1.90;;;;;;;;;;5085902;28;42912;-67
2023/09/03 02:24:56;;;;;;;1.30;1.20;;;;;;;;;;5086341;28;40236;-67
2023/09/03 02:27:24;;;;;;;2.25;2.05;;;;;;;;;;5086703;28;41728;-67
2023/09/03 02:29:52;;;;;;;2.53;2.03;;;;;;;;;;5088809;28;40120;-67
2023/09/03 02:32:20;;;;;;;2.00;1.80;;;;;;;;;;5086446;28;38950;-68
2023/09/03 02:34:48;;;;;;;1.48;1.38;;;;;;;;;;5089642;28;41351;-67
2023/09/03 02:37:18;;;;;;;2.47;2.28;;;;;;;;;;5085482;28;41752;-68
2023/09/03 02:39:47;;;;;;;2.83;2.25;;;;;;;;;;5086608;28;41903;-67
2023/09/03 02:42:15;;;;;;;1.85;1.65;;;;;;;;;;5087527;28;41677;-67
2023/09/03 02:44:43;;;;;;;2.42;1.88;;;;;;;;;;5082654;28;42791;-68
2023/09/03 02:47:11;;;;;;;3.53;2.47;;;;;;;;;;5083642;28;40326;-68
2023/09/03 02:49:39;;;;;;;1.33;1.20;;;;;;;;;;5088073;28;43312;-68
2023/09/03 02:52:07;;;;;;;2.88;2.60;;;;;;;;;;5090443;28;40166;-68
2023/09/03 02:54:36;;;;;;;2.00;1.80;;;;;;;;;;5087949;28;42621;-67
2023/09/03 02:57:04;;;;;;;1.58;1.48;;;;;;;;;;5088195;28;42881;-68
2023/09/03 02:59:32;;;;;;;2.40;2.20;;;;;;;;;;5088519;28;42664;-68
2023/09/03 03:02:00;;;;;;;2.30;2.10;;;;;;;;;;5087163;28;41703;-67
2023/09/03 03:04:28;;;;;;;1.48;1.38;;;;;;;;;;5088913;28;40006;-67
2023/09/03 03:06:57;;;;;;;1.60;1.50;;;;;;;;;;5086854;28;40236;-67
2023/09/03 03:09:25;;;;;;;3.30;2.28;;;;;;;;;;5086766;28;40813;-67
2023/09/03 03:11:54;;;;;;;2.47;2.28;;;;;;;;;;5088694;28;41335;-67
2023/09/03 03:14:23;;;;;;;2.17;1.60;;;;;;;;;;5086951;28;40751;-67
2023/09/03 03:16:53;;;;;;;3.58;2.13;;;;;;;;;;5086504;28;40449;-67
2023/09/03 03:19:21;;;;;;;2.50;2.30;;;;;;;;;;5089817;28;41448;-68
2023/09/03 03:21:49;;;;;;;1.90;1.80;;;;;;;;;;5084702;28;40707;-67
2023/09/03 03:24:19;;;;;;;2.00;1.38;;;;;;;;;;5087051;28;38904;-68
2023/09/03 03:26:48;;;;;;;3.10;2.20;;;;;;;;;;5087205;28;41947;-68
2023/09/03 03:29:21;;;;;;;2.47;2.28;;;;;;;;;;5085366;28;41212;-68
2023/09/03 03:31:52;;;;;;;2.05;1.85;;;;;;;;;;5088875;28;40776;-68
2023/09/03 03:34:20;;;;;;;2.63;1.85;;;;;;;;;;5085878;28;39874;-67
2023/09/03 03:36:52;;;;;;;2.75;1.90;;;;;;;;;;5086681;28;41820;-67
2023/09/03 03:39:20;;;;;;;2.38;2.17;;;;;;;;;;5085608;28;40337;-68
2023/09/03 03:41:49;;;;;;;1.98;1.83;;;;;;;;;;5087603;28;41221;-67
2023/09/03 03:44:18;;;;;;;2.50;2.05;;;;;;;;;;5085583;28;39345;-67
2023/09/03 03:46:47;;;;;;;1.63;1.52;;;;;;;;;;5088372;28;41804;-68
2023/09/03 03:49:15;;;;;;;2.90;2.67;;;;;;;;;;5088333;28;43138;-67
2023/09/03 03:51:43;;;;;;;2.35;2.15;;;;;;;;;;5085738;28;40093;-67
2023/09/03 03:54:12;;;;;;;3.10;2.80;;;;;;;;;;5087452;28;41022;-67
2023/09/03 03:56:42;;;;;;;1.40;1.30;;;;;;;;;;5084752;28;40036;-67
2023/09/03 03:59:10;;;;;;;2.60;2.40;;;;;;;;;;5087739;28;39969;-67
2023/09/03 04:01:37;;;;;;;1.77;1.67;;;;;;;;;;5084495;28;40330;-67
2023/09/03 04:04:07;;;;;;;2.42;2.22;;;;;;;;;;5086762;28;42496;-67
2023/09/03 04:06:35;;;;;;;1.95;1.85;;;;;;;;;;5086131;28;40247;-67
2023/09/03 04:09:03;;;;;;;1.88;1.77;;;;;;;;;;5088640;28;41976;-67
2023/09/03 04:11:31;;;;;;;2.13;1.80;;;;;;;;;;5085102;28;38420;-67
2023/09/03 04:13:59;;;;;;;2.92;2.40;;;;;;;;;;5085517;28;40086;-68
2023/09/03 04:16:27;;;;;;;2.33;2.10;;;;;;;;;;5084371;28;43394;-67
2023/09/03 04:18:56;;;;;;;1.45;1.35;;;;;;;;;;5083746;28;40030;-68
2023/09/03 04:21:25;;;;;;;4.00;2.78;;;;;;;;;;5087880;28;41955;-67
2023/09/03 04:23:54;;;;;;;3.78;2.33;;;;;;;;;;5085757;28;42329;-67
2023/09/03 04:26:22;;;;;;;2.38;2.17;;;;;;;;;;5086378;28;39187;-68
2023/09/03 04:28:53;;;;;;;1.90;1.75;;;;;;;;;;5086671;28;40788;-68
2023/09/03 04:31:22;;;;;;;2.50;2.30;;;;;;;;;;5085302;28;40420;-68
2023/09/03 04:33:50;;;;;;;2.47;1.90;;;;;;;;;;5086674;28;41425;-67
2023/09/03 04:36:18;;;;;;;1.70;1.60;;;;;;;;;;5086942;28;42111;-67
2023/09/03 04:38:48;;;;;;;1.30;1.20;;;;;;;;;;5075681;28;39242;-67
2023/09/03 04:41:18;;;;;;;1.80;1.70;;;;;;;;;;5083155;28;41348;-67
2023/09/03 04:43:49;;;;;;;1.48;1.35;;;;;;;;;;5084173;28;42294;-67
2023/09/03 04:46:20;;;;;;;1.40;1.30;;;;;;;;;;5082030;28;39208;-67
2023/09/03 04:48:49;;;;;;;1.60;1.50;;;;;;;;;;5088151;28;41731;-67
2023/09/03 04:51:17;;;;;;;2.28;1.95;;;;;;;;;;5071349;28;38934;-68
2023/09/03 04:53:46;;;;;;;1.40;1.30;;;;;;;;;;5083560;28;40270;-67
2023/09/03 04:56:15;;;;;;;1.55;1.45;;;;;;;;;;5085401;28;42130;-67
2023/09/03 04:58:45;;;;;;;1.77;1.60;;;;;;;;;;5081805;28;38985;-68
2023/09/03 05:01:15;;;;;;;2.30;0.95;;;;;;;;;;5079121;28;40930;-67
2023/09/03 05:03:45;;;;;;;2.08;1.70;;;;;;;;;;5084413;28;40251;-67
2023/09/03 05:06:15;;;;;;;2.25;2.05;;;;;;;;;;5088101;28;40178;-68
2023/09/03 05:08:45;;;;;;;2.40;2.00;;;;;;;;;;5083008;28;40443;-67
2023/09/03 05:11:16;;;;;;;1.38;1.27;;;;;;;;;;5077663;28;40209;-68
2023/09/03 05:13:46;;;;;;;1.88;1.77;;;;;;;;;;5077408;28;41971;-67
2023/09/03 05:16:16;;;;;;;2.63;1.92;;;;;;;;;;5082206;28;40575;-67
2023/09/03 05:18:44;;;;;;;2.55;2.28;;;;;;;;;;5102327;28;38389;-67
2023/09/03 05:21:13;;;;;;;1.25;1.15;;;;;;;;;;5085835;28;42446;-67
2023/09/03 05:23:42;;;;;;;2.25;2.05;;;;;;;;;;5084298;28;41079;-67
2023/09/03 05:26:10;;;;;;;1.25;1.15;;;;;;;;;;5084344;28;41284;-67
2023/09/03 05:28:42;;;;;;;1.75;1.65;;;;;;;;;;5078324;28;41129;-68
2023/09/03 05:31:11;;;;;;;1.85;1.75;;;;;;;;;;5082461;28;43304;-68
2023/09/03 05:33:41;;;;;;;2.35;2.15;;;;;;;;;;5083332;28;40897;-68
2023/09/03 05:36:10;;;;;;;1.38;1.27;;;;;;;;;;5085232;28;43084;-68
2023/09/03 05:38:39;;;;;;;1.35;1.17;;;;;;;;;;5083882;28;40656;-68
2023/09/03 05:41:07;;;;;;;2.10;1.90;;;;;;;;;;5085336;28;41114;-67
2023/09/03 05:43:35;;;;;;;2.17;1.98;;;;;;;;;;5082365;28;40868;-68
2023/09/03 05:46:04;;;;;;;1.45;1.35;;;;;;;;;;5086876;28;40220;-68
2023/09/03 05:48:34;;;;;;;2.25;2.00;;;;;;;;;;5097666;28;40643;-67
2023/09/03 05:51:04;;;;;;;1.35;1.25;;;;;;;;;;5084185;28;40906;-68
2023/09/03 05:53:36;;;;;;;1.48;1.38;;;;;;;;;;5084135;28;38552;-68
2023/09/03 05:56:05;;;;;;;1.95;1.85;;;;;;;;;;5082174;28;41112;-68
2023/09/03 05:58:34;;;;;;;2.25;2.05;;;;;;;;;;5083913;28;39334;-68
2023/09/03 06:01:05;;;;;;;2.30;2.08;;;;;;;;;;5083802;28;40739;-68
2023/09/03 06:03:33;;;;;;;3.08;2.08;;;;;;;;;;5086809;28;42437;-68
2023/09/03 06:06:03;;;;;;;2.47;2.28;;;;;;;;;;5089668;28;40176;-67
2023/09/03 06:08:31;;;;;;;2.80;2.60;;;;;;;;;;5085888;28;42271;-68
2023/09/03 06:10:59;;;;;;;2.80;2.50;;;;;;;;;;5088696;28;42793;-68
2023/09/03 06:13:27;;;;;;;2.40;2.10;;;;;;;;;;5089310;28;41434;-68
2023/09/03 06:15:55;;;;;;;2.35;2.15;;;;;;;;;;5090772;28;41133;-68
2023/09/03 06:18:25;;;;;;;2.25;2.05;;;;;;;;;;5088460;28;40271;-68
2023/09/03 06:20:54;;;;;;;3.40;3.10;;;;;;;;;;5075277;28;42062;-67
2023/09/03 06:23:22;;;;;;;2.65;2.45;;;;;;;;;;5087507;28;41932;-68
2023/09/03 06:25:51;;;;;;;4.30;2.45;;;;;;;;;;5088798;28;41231;-69
2023/09/03 06:28:19;;;;;;;2.13;1.90;;;;;;;;;;5088473;28;42581;-68
2023/09/03 06:30:47;;;;;;;3.83;3.17;;;;;;;;;;5081048;28;43131;-68
2023/09/03 06:33:15;;;;;;;3.70;2.63;;;;;;;;;;5083623;28;40048;-68
2023/09/03 06:35:44;;;;;;;3.25;2.95;;;;;;;;;;5082501;28;41762;-68
2023/09/03 06:38:12;;;;;;;3.53;2.50;;;;;;;;;;5086557;28;42102;-68
2023/09/03 06:40:40;;;;;;;3.00;2.65;;;;;;;;;;5088401;28;41475;-68
2023/09/03 06:43:08;;;;;;;5.78;3.83;;;;;;;;;;5089632;28;42370;-68
2023/09/03 06:45:36;;;;;;;3.35;3.00;;;;;;;;;;5087922;28;39924;-68
2023/09/03 06:48:05;;;;;;;4.55;3.80;;;;;;;;;;5089499;28;41768;-67
2023/09/03 06:50:33;;;;;;;4.53;4.03;;;;;;;;;;5087892;28;43152;-67
2023/09/03 06:53:02;;;;;;;4.85;4.35;;;;;;;;;;5089181;28;41317;-68
2023/09/03 06:55:30;;;;;;;4.55;3.80;;;;;;;;;;5088539;28;42043;-67
2023/09/03 06:57:59;;;;;;;5.05;3.25;;;;;;;;;;5089121;28;41660;-68
2023/09/03 07:00:27;;;;;;;4.53;3.20;;;;;;;;;;5085514;28;40396;-68
2023/09/03 07:02:55;;;;;;;5.05;4.60;;;;;;;;;;5088312;28;41773;-67
2023/09/03 07:05:23;;;;;;;4.38;3.92;;;;;;;;;;5088922;28;40063;-68
2023/09/03 07:07:51;;;;;;;6.43;4.32;;;;;;;;;;5083275;28;42399;-68
2023/09/03 07:10:20;;;;;;;4.60;3.03;;;;;;;;;;5074780;28;42535;-68
2023/09/03 07:12:48;;;;;;;5.18;4.15;;;;;;;;;;5080763;28;39939;-68
2023/09/03 07:15:16;;;;;;;5.18;4.03;;;;;;;;;;5081051;28;42302;-68
2023/09/03 07:17:44;;;;;;;5.05;4.55;;;;;;;;;;5083372;28;43149;-68
2023/09/03 07:20:12;;;;;;;7.18;5.03;;;;;;;;;;5084595;28;40231;-68
2023/09/03 07:22:41;;;;;;;4.75;3.92;;;;;;;;;;5076778;28;41418;-68
2023/09/03 07:25:09;;;;;;;4.13;3.67;;;;;;;;;;5083606;28;40441;-68
2023/09/03 07:27:39;;;;;;;7.45;6.00;;;;;;;;;;5086882;28;41230;-68
2023/09/03 07:30:08;;;;;;;5.55;4.00;;;;;;;;;;5087253;28;42185;-68
2023/09/03 07:32:37;;;;;;;6.72;4.03;;;;;;;;;;5087973;28;40457;-67
2023/09/03 07:35:06;;;;;;;5.30;4.80;;;;;;;;;;5084069;28;41870;-68
2023/09/03 07:37:34;;;;;;;5.05;4.00;;;;;;;;;;5084935;28;42441;-68
2023/09/03 07:40:03;;;;;;;6.68;4.00;;;;;;;;;;5079926;28;40321;-68
2023/09/03 07:42:31;;;;;;;7.82;4.28;;;;;;;;;;5083250;28;42097;-68
2023/09/03 07:45:00;;;;;;;5.32;4.53;;;;;;;;;;5088348;28;40352;-68
2023/09/03 07:47:28;;;;;;;6.65;4.22;;;;;;;;;;5086917;28;41758;-68
2023/09/03 07:49:56;;;;;;;6.28;4.90;;;;;;;;;;5088328;28;43011;-68
2023/09/03 07:52:24;;;;;;;5.88;4.70;;;;;;;;;;5087594;28;40435;-68
2023/09/03 07:54:52;;;;;;;5.13;4.50;;;;;;;;;;5088138;28;41396;-69
2023/09/03 07:57:20;;;;;;;6.13;3.97;;;;;;;;;;5087578;28;41702;-67
2023/09/03 07:59:48;;;;;;;7.45;4.35;;;;;;;;;;5087601;28;39876;-68
2023/09/03 08:02:18;;;;;;;6.10;4.57;;;;;;;;;;5088018;28;41807;-67
2023/09/03 08:04:47;;;;;;;7.65;4.60;;;;;;;;;;5085129;28;42068;-68
2023/09/03 08:07:15;;;;;;;7.88;3.80;;;;;;;;;;5087318;28;42973;-68
2023/09/03 08:09:43;;;;;;;5.82;3.22;;;;;;;;;;5081522;28;42486;-68
2023/09/03 08:12:11;;;;;;;5.65;4.47;;;;;;;;;;5088390;28;40986;-67
2023/09/03 08:14:41;;;;;;;6.95;4.18;;;;;;;;;;5083784;28;42482;-67
2023/09/03 08:17:09;;;;;;;6.55;5.00;;;;;;;;;;5083645;28;42141;-68
2023/09/03 08:19:39;;;;;;;6.10;4.93;;;;;;;;;;5084666;28;40264;-67
2023/09/03 08:22:07;;;;;;;7.50;4.70;;;;;;;;;;5084649;28;42251;-67
2023/09/03 08:24:35;;;;;;;5.68;3.83;;;;;;;;;;5084269;28;42796;-68
2023/09/03 08:27:03;;;;;;;5.47;3.20;;;;;;;;;;5085124;28;40940;-67
2023/09/03 08:29:31;;;;;;;5.43;4.35;;;;;;;;;;5086043;28;41827;-68
2023/09/03 08:32:00;;;;;;;5.82;3.20;;;;;;;;;;5087377;28;20236;-68
2023/09/03 08:34:30;;;;;;;10.23;4.63;;;;;;;;;;5081861;28;42301;-67
2023/09/03 08:37:00;;;;;;;6.28;3.33;;;;;;;;;;5080123;28;41429;-68
2023/09/03 08:39:28;;;;;;;10.40;5.97;;;;;;;;;;5083257;28;39494;-68
2023/09/03 08:41:56;;;;;;;7.60;3.10;;;;;;;;;;5074998;28;41744;-68
2023/09/03 08:44:26;;;;;;;8.70;4.13;;;;;;;;;;5078409;28;41854;-68
2023/09/03 08:46:56;;;;;;;8.88;2.80;;;;;;;;;;5077226;28;40257;-68
2023/09/03 08:49:23;;;;;;;8.38;4.47;;;;;;;;;;5086492;28;41555;-68
2023/09/03 08:51:51;;;;;;;8.90;4.80;;;;;;;;;;5080467;28;39984;-66
2023/09/03 08:54:21;;;;;;;5.65;5.05;;;;;;;;;;5081038;28;41746;-65
2023/09/03 08:56:49;;;;;;;7.60;5.10;;;;;;;;;;5080651;28;41970;-65
2023/09/03 08:59:17;;;;;;;7.30;4.90;;;;;;;;;;5078707;28;39306;-65
2023/09/03 09:01:49;;;;;;;8.77;5.70;;;;;;;;;;5083902;28;42781;-66
2023/09/03 09:04:17;;;;;;;8.98;4.82;;;;;;;;;;5079134;28;42932;-65
2023/09/03 09:06:46;;;;;;;11.57;5.47;;;;;;;;;;5084876;28;40494;-64
2023/09/03 09:09:14;;;;;;;8.20;4.32;;;;;;;;;;5084189;28;41355;-64
2023/09/03 09:11:46;;;;;;;6.60;4.80;;;;;;;;;;5084521;28;34777;-65
2023/09/03 09:14:15;;;;;;;8.63;4.88;;;;;;;;;;5076903;28;42175;-65
2023/09/03 09:16:43;;;;;;;8.27;4.93;;;;;;;;;;5086485;28;43112;-65
2023/09/03 09:19:11;;;;;;;10.80;5.18;;;;;;;;;;5087934;28;40473;-65
2023/09/03 09:21:39;;;;;;;10.07;5.00;;;;;;;;;;5085704;28;42224;-65
2023/09/03 09:24:07;;;;;;;8.30;4.68;;;;;;;;;;5083998;28;42063;-65
2023/09/03 09:26:36;;;;;;;12.88;5.10;;;;;;;;;;5076504;28;40692;-65
2023/09/03 09:29:06;;;;;;;8.75;4.13;;;;;;;;;;5083238;28;41677;-65
2023/09/03 09:31:34;;;;;;;8.85;3.58;;;;;;;;;;5086791;28;42378;-68
2023/09/03 09:34:09;;;;;;;5.75;3.92;;;;;;;;;;5082306;28;40570;-67
2023/09/03 09:36:37;;;;;;;10.52;4.20;;;;;;;;;;5071968;28;42148;-67
2023/09/03 09:39:05;;;;;;;5.80;4.28;;;;;;;;;;5084454;28;40850;-67
2023/09/03 09:41:37;;;;;;;5.40;3.72;;;;;;;;;;5084651;28;41646;-67
2023/09/03 09:44:11;;;;;;;5.55;4.20;;;;;;;;;;5085346;28;41921;-67
2023/09/03 09:46:39;;;;;;;7.03;4.20;;;;;;;;;;5083145;28;41721;-67
2023/09/03 09:49:08;;;;;;;7.93;3.60;;;;;;;;;;5086964;28;41487;-67
2023/09/03 09:51:36;;;;;;;4.03;3.40;;;;;;;;;;5085096;28;42712;-67
2023/09/03 09:54:04;;;;;;;8.13;3.50;;;;;;;;;;5086444;28;41087;-68
2023/09/03 09:56:34;;;;;;;8.50;4.03;;;;;;;;;;5084974;28;42237;-67
2023/09/03 09:59:02;;;;;;;11.02;3.88;;;;;;;;;;5084196;28;40720;-68
2023/09/03 10:01:43;;;;;;;4.40;2.53;;;;;;;;;;5085925;28;42627;-66
2023/09/03 10:04:11;;;;;;;6.50;2.53;;;;;;;;;;5081481;28;41689;-66
2023/09/03 10:06:39;;;;;;;3.63;2.10;;;;;;;;;;5084827;28;40695;-66
2023/09/03 10:09:08;;;;;;;5.38;2.00;;;;;;;;;;5083168;28;41167;-68
2023/09/03 10:11:36;;;;;;;5.38;2.13;;;;;;;;;;5075697;28;43053;-69
2023/09/03 10:14:04;;;;;;;5.28;2.22;;;;;;;;;;5083496;28;40858;-68
2023/09/03 10:16:32;;;;;;;6.22;2.05;;;;;;;;;;5084633;28;42429;-68
2023/09/03 10:19:03;;;;;;;3.13;2.03;;;;;;;;;;5083883;28;40547;-69
2023/09/03 10:21:31;;;;;;;4.28;1.95;;;;;;;;;;5084945;28;41205;-69
2023/09/03 10:24:19;;;;;;;5.15;2.13;;;;;;;;;;5081877;28;40812;-69
2023/09/03 10:26:48;;;;;;;4.60;1.92;;;;;;;;;;5086424;28;41480;-68
2023/09/03 10:29:19;;;;;;;3.22;1.90;;;;;;;;;;5085899;28;41584;-68
2023/09/03 10:31:47;;;;;;;2.78;1.67;;;;;;;;;;5085256;28;42280;-69
2023/09/03 10:34:16;;;;;;;2.88;1.95;;;;;;;;;;5084263;28;40938;-68
2023/09/03 10:37:03;;;;;;;2.83;1.90;;;;;;;;;;5084685;28;41927;-69
2023/09/03 10:39:31;;;;;;;1.92;1.55;;;;;;;;;;5084825;28;42296;-68
2023/09/03 10:42:17;;;;;;;3.05;1.70;;;;;;;;;;5085265;28;41488;-68
2023/09/03 10:44:50;;;;;;;4.85;1.65;;;;;;;;;;5085482;28;42703;-68
2023/09/03 10:47:18;;;;;;;4.65;1.70;;;;;;;;;;5082375;28;40324;-68
2023/09/03 10:49:48;;;;;;;3.47;1.50;;;;;;;;;;5087482;28;40104;-69
2023/09/03 10:52:35;;;;;;;2.58;1.27;;;;;;;;;;5087924;28;43062;-68
2023/09/03 10:55:12;;;;;;;3.35;1.60;;;;;;;;;;5089720;28;40337;-68
2023/09/03 10:57:40;;;;;;;3.60;1.55;;;;;;;;;;5086346;28;42324;-69
2023/09/03 11:00:13;;;;;;;2.13;1.40;;;;;;;;;;5087894;28;41459;-69
2023/09/03 11:02:41;;;;;;;2.17;1.48;;;;;;;;;;5089188;28;42340;-68
2023/09/03 11:05:20;;;;;;;2.97;1.85;;;;;;;;;;5080104;28;43006;-68
2023/09/03 11:07:48;;;;;;;2.70;1.60;;;;;;;;;;5085768;28;40476;-68
2023/09/03 11:10:35;;;;;;;2.92;1.85;;;;;;;;;;5088128;28;41757;-68
2023/09/03 11:13:04;;;;;;;2.78;1.38;;;;;;;;;;5119020;27;40366;-69
2023/09/03 11:15:32;;;;;;;2.53;1.50;;;;;;;;;;5087649;28;40943;-68
2023/09/03 11:18:00;;;;;;;2.15;1.40;;;;;;;;;;5088786;28;41598;-68
2023/09/03 11:20:31;;;;;;;1.88;1.30;;;;;;;;;;5086444;28;43284;-69
2023/09/03 11:23:17;;;;;;;4.50;1.83;;;;;;;;;;5088938;28;40067;-69
2023/09/03 11:25:45;;;;;;;2.55;1.50;;;;;;;;;;5088253;28;41697;-69
2023/09/03 11:28:13;;;;;;;3.72;1.40;;;;;;;;;;5087547;28;41061;-68
2023/09/03 11:30:42;;;;;;;2.83;1.50;;;;;;;;;;5088137;28;42618;-68
2023/09/03 11:33:19;;;;;;;1.80;1.60;;;;;;;;;;5087990;28;42234;-68
2023/09/03 11:35:49;;;;;;;1.85;1.50;;;;;;;;;;5085217;28;40525;-69
2023/09/03 11:38:17;;;;;;;4.53;1.60;;;;;;;;;;5087312;28;41930;-68
2023/09/03 11:40:45;;;;;;;4.05;1.65;;;;;;;;;;5087916;28;42525;-68
2023/09/03 11:43:13;;;;;;;1.27;1.17;;;;;;;;;;5087622;28;41453;-69
2023/09/03 11:45:41;;;;;;;2.40;1.63;;;;;;;;;;5089034;28;41503;-69
2023/09/03 11:48:09;;;;;;;2.58;1.30;;;;;;;;;;5088029;28;39965;-69
2023/09/03 11:50:37;;;;;;;2.25;1.30;;;;;;;;;;5086910;28;41439;-68
2023/09/03 11:53:08;;;;;;;2.03;1.40;;;;;;;;;;5088792;28;41978;-69
2023/09/03 11:55:37;;;;;;;2.75;1.40;;;;;;;;;;5083341;28;40679;-69
2023/09/03 11:58:06;;;;;;;1.45;1.17;;;;;;;;;;5082696;28;41486;-69
2023/09/03 12:00:34;;;;;;;1.70;1.13;;;;;;;;;;5079466;28;41989;-68
2023/09/03 12:03:03;;;;;;;2.78;1.70;;;;;;;;;;5085866;28;40541;-69
2023/09/03 12:05:32;;;;;;;3.53;1.33;;;;;;;;;;5087177;28;42614;-69
2023/09/03 12:08:01;;;;;;;3.65;1.15;;;;;;;;;;5085494;28;42571;-69
2023/09/03 12:10:30;;;;;;;1.20;1.10;;;;;;;;;;5086979;28;43124;-69
2023/09/03 12:12:59;;;;;;;2.63;0.95;;;;;;;;;;5085139;28;43877;-69
2023/09/03 12:15:29;;;;;;;1.33;0.90;;;;;;;;;;5087605;28;40242;-68
2023/09/03 12:18:05;;;;;;;1.77;1.20;;;;;;;;;;5085694;28;40358;-69
2023/09/03 12:20:34;;;;;;;3.58;1.50;;;;;;;;;;5087036;28;42011;-69
2023/09/03 12:23:12;;;;;;;2.95;1.33;;;;;;;;;;5086190;28;40153;-69
2023/09/03 12:25:41;;;;;;;6.43;1.50;;;;;;;;;;5082664;28;41224;-70
2023/09/03 12:28:09;;;;;;;3.22;1.55;;;;;;;;;;5086927;28;41378;-70
2023/09/03 12:30:56;;;;;;;4.53;1.65;;;;;;;;;;5087202;28;41134;-69
2023/09/03 12:33:25;;;;;;;8.88;2.08;;;;;;;;;;5087806;28;41958;-69
2023/09/03 12:36:09;;;;;;;2.53;1.55;;;;;;;;;;5084477;28;39997;-69
2023/09/03 12:38:56;;;;;;;5.47;1.40;;;;;;;;;;5079213;28;42706;-69
2023/09/03 12:41:26;;;;;;;7.03;1.70;;;;;;;;;;5079682;28;41531;-69
2023/09/03 12:43:54;;;;;;;2.10;1.40;;;;;;;;;;5086830;28;40704;-70
2023/09/03 12:46:22;;;;;;;4.65;1.67;;;;;;;;;;5084349;28;42078;-69
2023/09/03 12:48:51;;;;;;;4.40;1.30;;;;;;;;;;5083881;28;42248;-69
2023/09/03 12:51:19;;;;;;;3.72;1.30;;;;;;;;;;5082934;28;40392;-69
2023/09/03 12:53:47;;;;;;;2.08;1.13;;;;;;;;;;5088654;28;42796;-69
2023/09/03 12:56:16;;;;;;;4.70;1.38;;;;;;;;;;5087176;28;40308;-69
2023/09/03 12:58:46;;;;;;;1.88;1.55;;;;;;;;;;5079341;28;42284;-69
2023/09/03 13:01:14;;;;;;;3.42;1.20;;;;;;;;;;5084809;28;42270;-69
2023/09/03 13:03:42;;;;;;;1.80;1.00;;;;;;;;;;5087311;28;40373;-70
2023/09/03 13:06:11;;;;;;;1.23;1.05;;;;;;;;;;5086891;28;42217;-69
2023/09/03 13:08:39;;;;;;;4.13;1.48;;;;;;;;;;5085666;28;42016;-70
2023/09/03 13:11:07;;;;;;;2.15;1.50;;;;;;;;;;5086901;28;40214;-69
2023/09/03 13:13:35;;;;;;;2.05;1.40;;;;;;;;;;5085146;28;41602;-69
2023/09/03 13:16:05;;;;;;;1.52;1.15;;;;;;;;;;5088020;28;41928;-69
2023/09/03 13:18:33;;;;;;;5.03;1.20;;;;;;;;;;5083858;28;41443;-69
2023/09/03 13:21:05;;;;;;;1.48;0.98;;;;;;;;;;5083880;28;42196;-69
2023/09/03 13:23:33;;;;;;;2.00;1.00;;;;;;;;;;5086686;28;39798;-69
2023/09/03 13:26:01;;;;;;;1.92;1.33;;;;;;;;;;5086668;28;42233;-71
2023/09/03 13:28:29;;;;;;;4.50;1.20;;;;;;;;;;5085922;28;42222;-70
2023/09/03 13:30:57;;;;;;;4.78;1.60;;;;;;;;;;5085962;28;40630;-71
2023/09/03 13:33:36;;;;;;;2.25;1.02;;;;;;;;;;5083277;28;42007;-70
2023/09/03 13:36:06;;;;;;;6.68;1.40;;;;;;;;;;5071200;28;43224;-70
2023/09/03 13:38:34;;;;;;;1.55;1.02;;;;;;;;;;5081739;28;41908;-69
2023/09/03 13:41:03;;;;;;;2.58;1.08;;;;;;;;;;5085961;27;42237;-68
2023/09/03 13:43:31;;;;;;;3.55;1.23;;;;;;;;;;5083113;28;40561;-69
2023/09/03 13:45:59;;;;;;;3.00;1.17;;;;;;;;;;5085630;28;41266;-69
2023/09/03 13:48:28;;;;;;;7.78;1.15;;;;;;;;;;5084036;28;42205;-68
2023/09/03 13:50:57;;;;;;;2.03;1.10;;;;;;;;;;5080662;28;38926;-69
2023/09/03 13:53:25;;;;;;;5.25;1.10;;;;;;;;;;5083910;28;42034;-70
2023/09/03 13:55:53;;;;;;;2.38;1.02;;;;;;;;;;5081160;28;42705;-68
2023/09/03 13:58:21;;;;;;;3.78;1.15;;;;;;;;;;5084900;28;41443;-69
2023/09/03 14:00:50;;;;;;;5.70;1.45;;;;;;;;;;5084659;28;42824;-69
2023/09/03 14:03:18;;;;;;;5.65;1.80;;;;;;;;;;5085216;28;40610;-70
2023/09/03 14:05:46;;;;;;;5.85;1.15;;;;;;;;;;5082891;28;41051;-69
2023/09/03 14:08:16;;;;;;;3.50;1.27;;;;;;;;;;5083359;28;42962;-69
2023/09/03 14:10:45;;;;;;;6.32;1.25;;;;;;;;;;5080219;28;40719;-69
2023/09/03 14:13:13;;;;;;;3.33;1.35;;;;;;;;;;5082317;28;42657;-69
2023/09/03 14:15:41;;;;;;;4.57;1.58;;;;;;;;;;5082809;28;42044;-69
2023/09/03 14:18:08;;;;;;;3.13;1.35;;;;;;;;;;5083882;28;40387;-69
2023/09/03 14:20:36;;;;;;;2.95;1.25;;;;;;;;;;5082380;28;41658;-68
2023/09/03 14:23:05;;;;;;;4.03;1.20;;;;;;;;;;5079269;28;40990;-69
2023/09/03 14:25:35;;;;;;;2.35;1.10;;;;;;;;;;5085840;28;41105;-70
2023/09/03 14:28:03;;;;;;;2.22;1.00;;;;;;;;;;5086720;28;43153;-69
2023/09/03 14:30:33;;;;;;;1.90;1.25;;;;;;;;;;5088274;28;40033;-68
2023/09/03 14:33:02;;;;;;;3.05;1.20;;;;;;;;;;5087442;28;43691;-69
2023/09/03 14:35:30;;;;;;;3.65;1.42;;;;;;;;;;5087751;28;43176;-68
2023/09/03 14:37:58;;;;;;;1.58;1.15;;;;;;;;;;5086092;28;41019;-69
2023/09/03 14:40:26;;;;;;;2.35;1.08;;;;;;;;;;5088782;28;41828;-69
2023/09/03 14:42:55;;;;;;;2.80;1.42;;;;;;;;;;5088585;28;42642;-69
2023/09/03 14:45:23;;;;;;;1.40;1.30;;;;;;;;;;5087041;28;41105;-68
2023/09/03 14:47:51;;;;;;;3.88;1.10;;;;;;;;;;5086614;28;41927;-69
2023/09/03 14:50:19;;;;;;;2.00;1.27;;;;;;;;;;5088155;28;41362;-69
2023/09/03 14:52:47;;;;;;;2.50;1.35;;;;;;;;;;5086572;28;43228;-68
2023/09/03 14:55:15;;;;;;;1.70;1.30;;;;;;;;;;5087421;28;42280;-69